Time;durP1;ratioP1;P1;durP2;ratioP2;P2;SDS_P1;SDS_P2;PMS_P1;PMS_P2;Temp;Humidity;BMP_temperature;BMP_pressure;BME280_temperature;BME280_humidity;BME280_pressure;Samples;Min_cycle;Max_cycle;Signal;HPM_P1;HPM_P2
2021/03/21 00:01:39;;;;;;;9.10;6.62;;;;;;;1.54;65.59;100728.00;1756372;80;21670;-47
2021/03/21 00:04:07;;;;;;;10.13;6.75;;;;;;;1.49;65.85;100725.48;1747028;80;21132;-46
2021/03/21 00:06:35;;;;;;;9.93;7.47;;;;;;;1.45;66.06;100723.33;1747725;79;21110;-47
2021/03/21 00:09:04;;;;;;;15.75;8.65;;;;;;;1.45;66.19;100725.09;1754967;79;21153;-45
2021/03/21 00:11:32;;;;;;;12.15;8.28;;;;;;;1.42;66.02;100724.70;1747722;80;21114;-47
2021/03/21 00:14:01;;;;;;;11.88;7.60;;;;;;;1.36;65.97;100721.30;1752611;79;21140;-47
2021/03/21 00:16:28;;;;;;;13.15;7.87;;;;;;;1.33;65.97;100721.36;1751801;79;21161;-47
2021/03/21 00:18:56;;;;;;;12.13;8.03;;;;;;;1.29;66.02;100717.92;1752310;79;21519;-46
2021/03/21 00:21:24;;;;;;;12.37;7.67;;;;;;;1.26;66.04;100714.01;1755132;80;21312;-40
2021/03/21 00:23:52;;;;;;;12.37;7.42;;;;;;;1.22;66.15;100717.60;1753403;80;21437;-44
2021/03/21 00:26:19;;;;;;;12.35;7.58;;;;;;;1.19;66.23;100713.27;1748591;79;21165;-45
2021/03/21 00:28:47;;;;;;;10.75;7.67;;;;;;;1.18;66.29;100722.47;1757392;80;21183;-46
2021/03/21 00:31:15;;;;;;;11.38;7.25;;;;;;;1.13;66.29;100722.54;1755019;80;21127;-45
2021/03/21 00:33:43;;;;;;;10.60;6.62;;;;;;;1.08;66.37;100716.48;1746007;80;21573;-41
2021/03/21 00:36:13;;;;;;;10.65;7.22;;;;;;;1.04;66.44;100720.08;1755872;79;21121;-45
2021/03/21 00:38:44;;;;;;;;;;;;;;;0.99;66.54;100713.58;1751620;79;21561;-45
2021/03/21 00:41:13;;;;;;;10.37;6.70;;;;;;;0.98;66.61;100718.42;1751711;80;20179;-45
2021/03/21 00:43:42;;;;;;;11.48;8.33;;;;;;;0.96;66.68;100716.26;1756312;80;21139;-45
2021/03/21 00:46:10;;;;;;;9.73;6.40;;;;;;;0.98;66.73;100714.48;1750095;80;21173;-45
2021/03/21 00:48:41;;;;;;;9.60;6.65;;;;;;;0.99;66.67;100705.70;1746012;79;21133;-45
2021/03/21 00:51:10;;;;;;;9.95;6.60;;;;;;;0.99;66.66;100707.02;1748290;80;21557;-43
2021/03/21 00:53:38;;;;;;;11.15;7.22;;;;;;;0.99;66.63;100699.58;1754931;80;21174;-45
2021/03/21 00:56:07;;;;;;;9.40;7.33;;;;;;;0.97;66.63;100694.34;1750384;80;21156;-46
2021/03/21 00:58:36;;;;;;;11.70;6.95;;;;;;;0.94;66.66;100698.34;1748797;79;21153;-46
2021/03/21 01:01:04;;;;;;;10.90;6.87;;;;;;;0.92;66.69;100701.87;1759792;79;21696;-45
2021/03/21 01:03:32;;;;;;;10.05;6.70;;;;;;;0.90;66.71;100694.46;1757962;80;21173;-46
2021/03/21 01:06:04;;;;;;;9.75;5.87;;;;;;;0.86;66.75;100693.20;1751380;80;21161;-46
2021/03/21 01:08:37;;;;;;;8.73;6.37;;;;;;;0.86;66.79;100694.52;1753503;79;21171;-49
2021/03/21 01:11:16;;;;;;;8.93;6.23;;;;;;;0.89;66.85;100692.73;1741355;79;21597;-47
2021/03/21 01:13:46;;;;;;;13.08;8.00;;;;;;;0.89;66.80;100688.80;1758393;80;21120;-50
2021/03/21 01:16:21;;;;;;;10.65;7.35;;;;;;;0.89;66.74;100688.34;1804879;77;21586;-48
2021/03/21 01:18:50;;;;;;;9.65;6.67;;;;;;;0.88;66.78;100685.73;1799838;77;21960;-49
2021/03/21 01:21:19;;;;;;;8.43;6.03;;;;;;;0.86;66.78;100683.15;1808063;77;21119;-47
2021/03/21 01:23:47;;;;;;;10.43;6.40;;;;;;;0.88;66.79;100687.91;1805000;77;21122;-46
2021/03/21 01:26:17;;;;;;;10.03;7.08;;;;;;;0.87;66.73;100688.81;1786200;79;21111;-50
2021/03/21 01:28:45;;;;;;;9.77;6.77;;;;;;;0.84;66.73;100692.35;1805441;77;21098;-47
2021/03/21 01:31:18;;;;;;;11.22;6.80;;;;;;;0.82;66.80;100685.39;1805440;77;22229;-49
2021/03/21 01:33:45;;;;;;;10.13;7.78;;;;;;;0.82;66.85;100695.89;1805006;77;21106;-47
2021/03/21 01:36:21;;;;;;;10.70;6.90;;;;;;;0.76;66.87;100695.55;1804055;77;21142;-46
2021/03/21 01:38:52;;;;;;;10.70;6.35;;;;;;;0.73;66.95;100693.39;1797141;77;21591;-46
2021/03/21 01:41:23;;;;;;;;;;;;;;;0.71;66.99;100688.19;1807955;77;21637;-44
2021/03/21 01:43:50;;;;;;;9.43;6.30;;;;;;;0.69;67.01;100689.09;1786114;77;20148;-43
2021/03/21 01:46:39;;;;;;;9.70;6.05;;;;;;;0.69;67.05;100691.27;1745370;80;21142;-47
2021/03/21 01:49:31;;;;;;;10.78;6.85;;;;;;;0.69;67.08;100686.47;1805478;77;21124;-46
2021/03/21 01:51:59;;;;;;;;;;;;;;;0.68;67.13;100682.09;1810313;77;21100;-45
2021/03/21 01:54:26;;;;;;;9.10;6.05;;;;;;;0.68;67.18;100683.41;1807810;77;20591;-47
2021/03/21 01:56:54;;;;;;;8.65;6.28;;;;;;;0.69;67.20;100684.70;1803276;77;21148;-45
2021/03/21 01:59:25;;;;;;;8.50;5.75;;;;;;;0.70;67.25;100682.94;1778141;77;21484;-46
2021/03/21 02:01:55;;;;;;;9.53;6.83;;;;;;;0.70;67.27;100682.49;1800219;77;21504;-48
2021/03/21 02:04:23;;;;;;;9.40;6.42;;;;;;;0.72;67.26;100681.17;1802738;77;21135;-46
2021/03/21 02:07:19;;;;;;;10.03;6.70;;;;;;;0.73;67.26;100676.33;1809290;77;21107;-45
2021/03/21 02:10:17;;;;;;;9.15;5.95;;;;;;;0.74;67.24;100676.77;1685893;83;21640;-41
2021/03/21 02:12:59;;;;;;;8.10;6.53;;;;;;;0.74;67.17;100677.63;1691486;83;21160;-43
2021/03/21 02:15:40;;;;;;;7.75;5.53;;;;;;;0.74;67.17;100676.77;1697489;83;21645;-44
2021/03/21 02:18:35;;;;;;;8.05;5.85;;;;;;;0.74;67.17;100679.39;1695751;83;21154;-45
2021/03/21 02:21:38;;;;;;;8.48;5.80;;;;;;;0.73;67.16;100674.59;1687867;83;21548;-45
2021/03/21 02:24:20;;;;;;;7.87;5.25;;;;;;;0.73;67.15;100678.53;1684769;83;21138;-46
2021/03/21 02:27:10;;;;;;;10.35;5.95;;;;;;;0.71;67.21;100676.82;1682802;83;21190;-45
2021/03/21 02:30:01;;;;;;;10.08;6.78;;;;;;;0.70;67.20;100664.56;1686059;83;21577;-45
2021/03/21 02:32:48;;;;;;;10.00;8.05;;;;;;;0.73;67.27;100664.09;1786411;77;27728;-46
2021/03/21 02:35:41;;;;;;;;;;;;;;;0.70;67.27;100669.81;1748897;79;21585;-46
2021/03/21 02:38:33;;;;;;;8.73;5.70;;;;;;;0.75;67.15;100663.59;1775549;78;20165;-47
2021/03/21 02:41:07;;;;;;;9.80;5.78;;;;;;;0.73;67.07;100660.58;1779455;78;21638;-42
2021/03/21 02:43:51;;;;;;;9.83;7.12;;;;;;;0.70;67.04;100657.55;1756255;79;21157;-46
2021/03/21 02:46:35;;;;;;;8.00;5.97;;;;;;;0.68;67.03;100655.42;1774943;78;21098;-43
2021/03/21 02:49:08;;;;;;;9.13;6.65;;;;;;;0.68;67.11;100653.22;1776111;78;21118;-45
2021/03/21 02:51:39;;;;;;;10.15;7.42;;;;;;;0.69;67.07;100651.03;1782875;78;21134;-45
2021/03/21 02:54:18;;;;;;;10.53;6.95;;;;;;;0.67;67.05;100645.79;1777311;78;21141;-42
2021/03/21 02:56:49;;;;;;;9.83;6.47;;;;;;;0.68;67.04;100647.97;1778825;78;21176;-54
2021/03/21 02:59:30;;;;;;;11.78;5.87;;;;;;;0.69;67.04;100647.09;1778048;78;21141;-45
2021/03/21 03:02:09;;;;;;;8.10;6.25;;;;;;;0.68;66.97;100640.09;1754211;80;21457;-45
2021/03/21 03:04:41;;;;;;;9.78;6.58;;;;;;;0.67;66.97;100644.93;1778061;78;21534;-46
2021/03/21 03:07:19;;;;;;;7.80;5.97;;;;;;;0.66;66.97;100644.52;1773654;80;21117;-48
2021/03/21 03:09:50;;;;;;;8.37;6.30;;;;;;;0.65;66.96;100639.69;1749908;80;21157;-47
2021/03/21 03:12:40;;;;;;;7.55;6.33;;;;;;;0.64;66.94;100643.22;1757539;80;21569;-44
2021/03/21 03:15:12;;;;;;;9.00;6.58;;;;;;;0.63;67.01;100641.05;1751773;80;21114;-45
2021/03/21 03:17:43;;;;;;;8.50;6.67;;;;;;;0.63;67.02;100641.05;1747524;80;21138;-46
2021/03/21 03:20:32;;;;;;;;;;;;;;;0.64;66.99;100640.14;1750001;80;21155;-46
2021/03/21 03:23:14;;;;;;;7.83;5.17;;;;;;;0.64;66.90;100644.08;1751123;80;20193;-45
2021/03/21 03:26:16;;;;;;;6.72;4.92;;;;;;;0.64;66.87;100638.83;1720446;81;21185;-44
2021/03/21 03:28:48;;;;;;;7.80;5.85;;;;;;;0.62;66.82;100641.05;1713789;81;21165;-42
2021/03/21 03:31:29;;;;;;;8.88;6.15;;;;;;;0.59;66.86;100634.55;1710809;82;21181;-48
2021/03/21 03:33:57;;;;;;;8.08;5.35;;;;;;;0.58;66.89;100636.31;1719023;82;21115;-45
2021/03/21 03:36:24;;;;;;;9.08;6.15;;;;;;;0.57;66.89;100637.18;1692746;83;21166;-47
2021/03/21 03:38:52;;;;;;;9.03;5.37;;;;;;;0.53;66.91;100631.58;1679851;83;21154;-45
2021/03/21 03:42:01;;;;;;;9.15;6.30;;;;;;;0.51;66.96;100628.55;1692319;83;21176;-44
2021/03/21 03:44:41;;;;;;;9.17;6.20;;;;;;;0.51;67.03;100627.23;1672213;85;21181;-53
2021/03/21 03:47:39;;;;;;;7.95;5.17;;;;;;;0.51;67.03;100633.35;1697539;83;21623;-49
2021/03/21 03:50:13;;;;;;;8.27;5.73;;;;;;;0.50;67.06;100628.11;1694929;83;21175;-45
2021/03/21 03:52:54;;;;;;;8.43;6.33;;;;;;;0.50;67.02;100628.11;1696228;83;21167;-45
2021/03/21 03:55:48;;;;;;;8.20;5.92;;;;;;;0.48;67.08;100632.51;1692579;83;21179;-41
2021/03/21 03:59:06;;;;;;;10.73;5.90;;;;;;;0.48;67.10;100620.70;1759097;79;23089;-49
2021/03/21 04:02:11;;;;;;;8.58;5.60;;;;;;;0.44;67.08;100621.20;1738524;80;21153;-44
2021/03/21 04:04:55;;;;;;;9.38;6.28;;;;;;;0.44;67.01;100618.58;1637317;85;21184;-48
2021/03/21 04:07:51;;;;;;;8.28;6.20;;;;;;;0.41;67.02;100612.93;1638856;85;21152;-47
2021/03/21 04:10:48;;;;;;;9.77;6.33;;;;;;;0.43;67.03;100613.78;1797010;78;23119;-47
2021/03/21 04:13:23;;;;;;;11.68;7.20;;;;;;;0.39;67.02;100619.09;1774356;79;21608;-46
2021/03/21 04:15:53;;;;;;;11.20;7.58;;;;;;;0.38;67.07;100621.31;1731803;81;21159;-47
2021/03/21 04:18:50;;;;;;;10.25;6.53;;;;;;;0.37;67.07;100620.86;1712233;83;21161;-45
2021/03/21 04:21:26;;;;;;;10.30;7.15;;;;;;;0.33;67.11;100615.26;1673782;84;21157;-49
2021/03/21 04:24:11;;;;;;;10.53;6.83;;;;;;;0.35;67.18;100616.97;1763595;79;23076;-45
2021/03/21 04:26:44;;;;;;;8.83;5.87;;;;;;;0.32;67.21;100622.69;1739099;80;21137;-43
2021/03/21 04:29:23;;;;;;;9.33;6.35;;;;;;;0.35;67.25;100620.91;1738604;81;21166;-46
2021/03/21 04:31:51;;;;;;;9.33;6.15;;;;;;;0.36;67.24;100619.14;1663356;84;21199;-46
2021/03/21 04:34:26;;;;;;;11.08;8.25;;;;;;;0.41;67.22;100613.38;1792913;78;28317;-45
2021/03/21 04:36:55;;;;;;;8.68;6.62;;;;;;;0.36;67.33;100620.45;1774498;80;21153;-45
2021/03/21 04:39:27;;;;;;;9.63;6.72;;;;;;;0.45;67.21;100620.75;1768307;80;21133;-46
2021/03/21 04:42:15;;;;;;;9.90;6.35;;;;;;;0.46;67.12;100623.81;1728570;80;21137;-47
2021/03/21 04:44:57;;;;;;;11.12;7.75;;;;;;;0.46;67.14;100619.88;1765249;80;21167;-47
2021/03/21 04:48:02;;;;;;;14.43;8.23;;;;;;;0.48;67.13;100615.45;1713628;81;21162;-50
2021/03/21 04:50:31;;;;;;;16.52;8.38;;;;;;;0.45;67.13;100611.12;1719923;81;21110;-46
2021/03/21 04:53:17;;;;;;;13.72;7.80;;;;;;;0.46;67.18;100610.70;1721209;81;21181;-46
2021/03/21 04:55:48;;;;;;;11.65;7.67;;;;;;;0.48;67.28;100611.52;1620022;87;21210;-48
2021/03/21 04:58:44;;;;;;;12.53;8.00;;;;;;;0.52;67.28;100611.45;1785639;78;28735;-46
2021/03/21 05:01:24;;;;;;;10.10;6.78;;;;;;;0.47;67.35;100613.73;1752862;80;21155;-46
2021/03/21 05:04:13;;;;;;;8.70;6.25;;;;;;;0.56;67.40;100607.90;1776618;79;21109;-45
2021/03/21 05:06:50;;;;;;;11.10;6.42;;;;;;;0.58;67.40;100610.48;1766763;79;21162;-43
2021/03/21 05:09:23;;;;;;;8.53;6.70;;;;;;;0.58;67.43;100618.36;1744615;80;21149;-47
2021/03/21 05:12:05;;;;;;;9.00;5.67;;;;;;;0.60;67.40;100616.13;1757854;79;21119;-44
2021/03/21 05:14:44;;;;;;;9.27;6.57;;;;;;;0.63;67.43;100613.48;1777750;80;21147;-44
2021/03/21 05:17:21;;;;;;;8.87;6.10;;;;;;;0.68;67.38;100605.54;1679232;83;21664;-45
2021/03/21 05:20:02;;;;;;;8.45;6.35;;;;;;;0.74;67.29;100600.18;1807075;78;23089;-44
2021/03/21 05:22:43;;;;;;;8.27;5.27;;;;;;;0.74;68.21;100605.88;1777021;80;21542;-50
2021/03/21 05:25:34;;;;;;;10.17;6.67;;;;;;;0.78;68.17;100612.38;1690087;82;21540;-43
2021/03/21 05:28:17;;;;;;;7.03;5.90;;;;;;;0.82;67.93;100608.78;1719430;83;21537;-50
2021/03/21 05:30:46;;;;;;;8.50;6.27;;;;;;;0.85;67.53;100610.50;1710585;83;21130;-51
2021/03/21 05:33:14;;;;;;;9.33;7.05;;;;;;;0.87;67.37;100606.09;1719683;83;21154;-50
2021/03/21 05:35:43;;;;;;;8.78;6.20;;;;;;;0.93;67.23;100612.99;1723450;81;21141;-50
2021/03/21 05:38:17;;;;;;;9.80;6.75;;;;;;;0.97;67.00;100611.61;1741569;81;21169;-45
2021/03/21 05:41:09;;;;;;;10.83;6.83;;;;;;;1.00;66.97;100606.75;1722221;81;21592;-45
2021/03/21 05:43:49;;;;;;;10.27;6.67;;;;;;;1.05;66.73;100609.71;1742528;81;21149;-46
2021/03/21 05:46:48;;;;;;;10.03;7.05;;;;;;;1.10;66.52;100603.52;1626320;86;21700;-46
2021/03/21 05:49:39;;;;;;;8.10;6.27;;;;;;;1.12;66.22;100607.85;1651481;85;21210;-46
2021/03/21 05:52:29;;;;;;;;;;;;;;;1.14;66.32;100608.70;1688231;83;21225;-47
2021/03/21 05:55:05;;;;;;;7.87;5.73;;;;;;;1.19;65.64;100611.25;1679236;83;20188;-46
2021/03/21 05:58:02;;;;;;;9.55;6.03;;;;;;;1.25;65.61;100604.10;1754255;79;22936;-43
2021/03/21 06:01:01;;;;;;;12.63;7.65;;;;;;;1.24;65.35;100613.34;1676591;83;21291;-47
2021/03/21 06:04:02;;;;;;;9.87;6.90;;;;;;;1.26;65.37;100610.22;1682706;83;21654;-43
2021/03/21 06:06:54;;;;;;;8.27;6.17;;;;;;;1.28;65.18;100602.73;1679293;83;21173;-43
2021/03/21 06:09:56;;;;;;;10.13;6.90;;;;;;;1.33;65.05;100605.27;1679462;83;21181;-42
2021/03/21 06:13:01;;;;;;;9.58;7.03;;;;;;;1.35;64.78;100600.00;1679089;83;21194;-46
2021/03/21 06:15:57;;;;;;;11.03;6.80;;;;;;;1.37;64.58;100608.28;1655427;83;21555;-45
2021/03/21 06:18:50;;;;;;;8.68;6.00;;;;;;;1.40;64.05;100600.78;1684631;83;21184;-44
2021/03/21 06:22:01;;;;;;;10.63;7.00;;;;;;;1.44;63.92;100597.21;1677746;83;21177;-42
2021/03/21 06:24:40;;;;;;;8.60;6.58;;;;;;;1.49;63.96;100607.19;1685320;83;21177;-45
2021/03/21 06:27:30;;;;;;;12.60;8.13;;;;;;;1.54;63.88;100588.67;1684339;83;21304;-43
2021/03/21 06:30:39;;;;;;;10.53;8.00;;;;;;;1.63;63.66;100585.87;1801683;79;23089;-42
2021/03/21 06:33:48;;;;;;;11.88;8.00;;;;;;;1.64;63.57;100587.62;1775167;79;21585;-44
2021/03/21 06:36:42;;;;;;;10.77;7.83;;;;;;;1.65;63.40;100586.72;1775251;79;21180;-45
2021/03/21 06:39:51;;;;;;;10.78;8.40;;;;;;;1.68;63.09;100582.70;1779531;79;21141;-45
2021/03/21 06:42:44;;;;;;;13.35;7.85;;;;;;;1.70;63.10;100586.17;1743249;81;21138;-45
2021/03/21 06:45:32;;;;;;;11.22;8.55;;;;;;;1.71;63.31;100580.89;1714995;83;21193;-43
2021/03/21 06:48:29;;;;;;;15.08;10.38;;;;;;;1.76;62.86;100572.89;1743724;80;21161;-42
2021/03/21 06:51:11;;;;;;;11.40;8.43;;;;;;;1.74;62.73;100570.77;1676872;84;21176;-54
2021/03/21 06:54:25;;;;;;;11.75;9.00;;;;;;;1.77;62.88;100565.43;1797063;78;23090;-44
2021/03/21 06:57:36;;;;;;;15.25;11.73;;;;;;;1.76;63.29;100569.39;1771313;80;21369;-49
2021/03/21 07:00:35;;;;;;;14.55;10.43;;;;;;;1.83;62.50;100567.06;1776614;79;21124;-41
2021/03/21 07:03:18;;;;;;;16.82;11.48;;;;;;;1.78;61.87;100557.95;1774306;79;21169;-44
2021/03/21 07:06:39;;;;;;;15.60;11.12;;;;;;;1.74;62.12;100553.67;1780090;79;21106;-45
2021/03/21 07:09:23;;;;;;;18.00;12.20;;;;;;;1.72;61.93;100552.83;1674600;83;21252;-48
2021/03/21 07:12:08;;;;;;;17.95;13.28;;;;;;;1.70;62.26;100554.62;1678513;83;21163;-44
2021/03/21 07:14:59;;;;;;;18.85;13.28;;;;;;;1.67;61.83;100547.66;1683710;83;21137;-45
2021/03/21 07:17:41;;;;;;;17.10;12.55;;;;;;;1.66;61.72;100543.31;1676433;83;21161;-45
2021/03/21 07:20:50;;;;;;;16.62;12.25;;;;;;;1.67;61.93;100537.60;1813541;77;23071;-42
2021/03/21 07:23:51;;;;;;;14.50;11.18;;;;;;;1.59;61.77;100538.19;1810198;78;21148;-54
2021/03/21 07:26:55;;;;;;;15.05;11.55;;;;;;;1.60;62.32;100525.48;1810651;78;21145;-47
2021/03/21 07:29:47;;;;;;;16.15;11.73;;;;;;;1.67;62.01;100526.62;1810537;78;21101;-46
2021/03/21 07:32:55;;;;;;;15.08;11.68;;;;;;;1.75;61.68;100519.89;1810214;78;21161;-46
2021/03/21 07:36:03;;;;;;;17.12;10.88;;;;;;;1.80;61.80;100523.28;1812102;78;21125;-46
2021/03/21 07:39:19;;;;;;;13.95;10.53;;;;;;;1.89;61.81;100511.25;1813607;78;21134;-45
2021/03/21 07:42:29;;;;;;;16.12;13.30;;;;;;;1.99;62.03;100500.08;1815998;78;21150;-45
2021/03/21 07:45:29;;;;;;;15.88;11.50;;;;;;;2.08;61.67;100492.41;1811161;78;21483;-45
2021/03/21 07:48:40;;;;;;;16.55;11.65;;;;;;;2.19;61.13;100490.84;1813847;78;21157;-46
2021/03/21 07:51:56;;;;;;;15.85;12.70;;;;;;;2.27;59.64;100475.30;1811348;78;21129;-46
2021/03/21 07:54:39;;;;;;;13.95;11.00;;;;;;;2.34;58.62;100472.93;1816656;78;21117;-46
2021/03/21 07:57:16;;;;;;;15.18;11.00;;;;;;;2.35;57.41;100471.16;1813878;78;21157;-46
2021/03/21 07:59:44;;;;;;;17.90;12.47;;;;;;;2.35;58.37;100468.06;1813101;78;21101;-46
2021/03/21 08:02:15;;;;;;;16.90;11.85;;;;;;;2.41;57.44;100451.70;1822739;78;21137;-46
2021/03/21 08:04:48;;;;;;;14.20;11.45;;;;;;;2.42;57.19;100456.94;1786234;78;21117;-46
2021/03/21 08:07:28;;;;;;;14.20;11.33;;;;;;;2.40;57.22;100444.73;1814445;78;21552;-46
2021/03/21 08:09:56;;;;;;;15.35;12.20;;;;;;;2.43;57.06;100443.33;1791640;78;21912;-45
2021/03/21 08:12:33;;;;;;;16.05;11.90;;;;;;;2.45;56.81;100437.58;1791865;78;21133;-55
2021/03/21 08:15:18;;;;;;;16.57;11.30;;;;;;;2.52;57.32;100432.11;1792535;78;21105;-46
2021/03/21 08:18:01;;;;;;;16.07;11.40;;;;;;;2.70;56.72;100432.53;1750188;80;21136;-46
2021/03/21 08:20:39;;;;;;;15.30;12.20;;;;;;;2.80;55.78;100423.47;1741946;80;21631;-45
2021/03/21 08:23:30;;;;;;;12.88;10.13;;;;;;;2.87;56.41;100418.88;1707236;82;21569;-44
2021/03/21 08:26:04;;;;;;;14.47;12.03;;;;;;;2.96;55.48;100417.31;1744522;80;21940;-50
2021/03/21 08:28:38;;;;;;;16.62;11.73;;;;;;;3.06;54.94;100413.97;1780714;79;21113;-44
2021/03/21 08:31:10;;;;;;;15.38;11.57;;;;;;;3.11;54.68;100405.48;1780378;79;21133;-46
2021/03/21 08:33:42;;;;;;;17.10;11.65;;;;;;;3.13;53.90;100407.63;1781538;79;21116;-46
2021/03/21 08:36:24;;;;;;;16.25;12.15;;;;;;;3.12;53.88;100405.41;1779205;79;21168;-45
2021/03/21 08:39:08;;;;;;;13.10;10.63;;;;;;;3.08;53.07;100398.53;1739548;80;21478;-49
2021/03/21 08:41:56;;;;;;;12.90;9.65;;;;;;;3.08;53.70;100401.16;1723065;81;21157;-48
2021/03/21 08:44:46;;;;;;;13.32;9.90;;;;;;;3.14;53.93;100389.57;1720128;81;21146;-53
2021/03/21 08:47:19;;;;;;;14.30;10.55;;;;;;;3.24;53.23;100385.30;1720528;81;21473;-44
2021/03/21 08:49:53;;;;;;;14.03;9.60;;;;;;;3.34;52.60;100383.71;1723088;81;21125;-52
2021/03/21 08:52:45;;;;;;;13.45;9.88;;;;;;;3.39;52.21;100376.06;1738289;80;21142;-46
2021/03/21 08:55:28;;;;;;;13.38;9.95;;;;;;;3.43;51.76;100367.16;1745888;81;21569;-46
2021/03/21 08:57:55;;;;;;;13.45;10.05;;;;;;;3.51;51.49;100364.75;1742982;80;21122;-44
2021/03/21 09:00:35;;;;;;;13.22;10.08;;;;;;;3.56;51.44;100357.09;1739794;80;21173;-44
2021/03/21 09:03:30;;;;;;;12.75;9.83;;;;;;;3.62;51.74;100354.25;1719849;81;22002;-47
2021/03/21 09:05:59;;;;;;;12.93;9.60;;;;;;;3.68;51.26;100343.52;1722377;81;21145;-43
2021/03/21 09:08:31;;;;;;;14.43;10.10;;;;;;;3.72;50.54;100343.41;1747789;80;21146;-53
2021/03/21 09:11:01;;;;;;;12.53;9.40;;;;;;;3.71;50.20;100337.28;1746571;80;21449;-47
2021/03/21 09:13:33;;;;;;;13.25;10.75;;;;;;;3.73;50.08;100329.30;1718883;82;21600;-48
2021/03/21 09:16:11;;;;;;;13.38;10.28;;;;;;;3.77;49.60;100324.34;1782858;79;21115;-49
2021/03/21 09:18:42;;;;;;;15.18;10.20;;;;;;;3.76;50.85;100324.80;1746188;80;21561;-45
2021/03/21 09:21:18;;;;;;;14.78;10.23;;;;;;;3.80;49.82;100305.77;1745724;80;21155;-44
2021/03/21 09:24:06;;;;;;;13.48;10.82;;;;;;;3.82;49.52;100315.82;1746105;80;21145;-42
2021/03/21 09:26:44;;;;;;;13.40;9.90;;;;;;;3.87;49.43;100311.25;1716918;82;21494;-45
2021/03/21 09:29:23;;;;;;;13.58;10.25;;;;;;;3.96;50.05;100314.05;1732732;81;21172;-47
2021/03/21 09:31:54;;;;;;;13.25;9.28;;;;;;;4.05;49.44;100319.00;1737101;81;21161;-43
2021/03/21 09:34:31;;;;;;;16.27;11.03;;;;;;;4.07;48.16;100306.62;1686079;83;21149;-42
2021/03/21 09:37:12;;;;;;;14.50;10.38;;;;;;;4.06;47.50;100306.23;1714645;82;21584;-48
2021/03/21 09:39:47;;;;;;;14.38;10.58;;;;;;;4.01;46.71;100304.20;1736462;81;21153;-49
2021/03/21 09:42:15;;;;;;;12.93;9.33;;;;;;;3.97;47.85;100298.61;1708497;81;21780;-41
2021/03/21 09:44:45;;;;;;;15.28;10.63;;;;;;;3.99;48.03;100296.33;1736260;81;21141;-42
2021/03/21 09:47:53;;;;;;;12.82;9.68;;;;;;;4.06;48.45;100291.71;1733825;81;21549;-46
2021/03/21 09:50:45;;;;;;;13.58;10.68;;;;;;;4.17;47.47;100276.81;1677659;84;21188;-48
2021/03/21 09:53:46;;;;;;;11.38;9.43;;;;;;;4.32;48.79;100279.77;1802391;78;23639;-49
2021/03/21 09:56:34;;;;;;;13.53;9.48;;;;;;;4.39;48.95;100267.67;1766927;79;21194;-48
2021/03/21 09:59:37;;;;;;;11.88;9.23;;;;;;;4.52;48.10;100277.72;1768472;79;21130;-49
2021/03/21 10:02:29;;;;;;;12.10;9.23;;;;;;;4.60;47.68;100276.58;1769894;79;21651;-50
2021/03/21 10:05:05;;;;;;;11.80;8.93;;;;;;;4.68;47.75;100274.51;1773841;79;21185;-49
2021/03/21 10:07:44;;;;;;;12.65;9.93;;;;;;;4.73;47.30;100272.55;1772397;79;21149;-50
2021/03/21 10:10:29;;;;;;;12.13;8.63;;;;;;;4.78;46.86;100262.67;1744549;81;21616;-47
2021/03/21 10:12:56;;;;;;;11.80;8.98;;;;;;;4.83;46.68;100254.11;1747572;81;21585;-49
2021/03/21 10:15:26;;;;;;;11.88;9.08;;;;;;;4.92;45.42;100248.48;1742135;81;21177;-47
2021/03/21 10:17:59;;;;;;;15.58;9.75;;;;;;;4.94;45.59;100251.08;1694907;83;21129;-51
2021/03/21 10:21:03;;;;;;;11.30;8.60;;;;;;;4.96;45.53;100247.45;1681761;84;21158;-49
2021/03/21 10:23:59;;;;;;;12.65;10.10;;;;;;;4.97;43.98;100234.63;1712004;82;21288;-48
2021/03/21 10:26:32;;;;;;;11.28;8.10;;;;;;;4.92;44.93;100222.05;1680521;84;21154;-48
2021/03/21 10:29:18;;;;;;;10.32;8.15;;;;;;;4.99;43.77;100233.26;1715244;82;21169;-49
2021/03/21 10:31:45;;;;;;;11.08;8.58;;;;;;;5.02;44.05;100229.63;1713463;82;21202;-50
2021/03/21 10:34:18;;;;;;;10.30;7.28;;;;;;;5.02;44.24;100229.16;1680813;84;21162;-46
2021/03/21 10:36:46;;;;;;;10.32;7.58;;;;;;;5.07;43.66;100221.06;1691032;83;21162;-47
2021/03/21 10:39:29;;;;;;;8.88;6.78;;;;;;;5.13;44.08;100210.22;1692611;84;21186;-50
2021/03/21 10:42:07;;;;;;;9.35;7.50;;;;;;;5.21;44.10;100205.02;1691465;84;21153;-45
2021/03/21 10:44:46;;;;;;;9.10;7.03;;;;;;;5.27;42.15;100203.92;1691430;84;21137;-47
2021/03/21 10:47:30;;;;;;;10.00;6.72;;;;;;;5.20;42.26;100191.88;1686674;84;21500;-46
2021/03/21 10:50:03;;;;;;;13.05;7.95;;;;;;;5.21;42.40;100200.20;1688055;84;21130;-45
2021/03/21 10:52:36;;;;;;;9.50;7.25;;;;;;;5.28;42.99;100191.09;1683219;84;21190;-44
2021/03/21 10:55:21;;;;;;;12.58;8.63;;;;;;;5.33;42.19;100191.77;1730898;82;21141;-45
2021/03/21 10:57:52;;;;;;;10.48;7.17;;;;;;;5.38;41.82;100200.83;1733760;81;21153;-43
2021/03/21 11:00:30;;;;;;;9.25;7.03;;;;;;;5.35;39.30;100191.24;1711227;82;21281;-43
2021/03/21 11:03:10;;;;;;;10.43;8.20;;;;;;;5.30;39.91;100184.43;1733330;81;21136;-46
2021/03/21 11:05:44;;;;;;;10.13;7.50;;;;;;;5.35;39.60;100175.84;1734995;81;21161;-44
2021/03/21 11:08:18;;;;;;;10.80;7.70;;;;;;;5.38;39.71;100165.98;1697589;83;21157;-45
2021/03/21 11:10:51;;;;;;;9.15;6.62;;;;;;;5.41;39.37;100168.49;1695987;83;21154;-44
2021/03/21 11:13:31;;;;;;;13.58;9.90;;;;;;;5.41;39.64;100164.53;1739288;81;21159;-46
2021/03/21 11:16:01;;;;;;;10.63;8.10;;;;;;;5.35;39.73;100151.58;1737934;82;21142;-46
2021/03/21 11:18:31;;;;;;;9.73;8.00;;;;;;;5.30;40.10;100156.20;1711730;82;21120;-50
2021/03/21 11:21:18;;;;;;;11.20;8.57;;;;;;;5.32;41.85;100153.50;1732581;81;21962;-46
2021/03/21 11:23:54;;;;;;;9.80;7.83;;;;;;;5.41;42.83;100147.34;1736241;82;21668;-49
2021/03/21 11:26:29;;;;;;;12.15;8.65;;;;;;;5.54;43.17;100141.53;1731880;81;21162;-46
2021/03/21 11:29:14;;;;;;;11.28;8.88;;;;;;;5.64;42.66;100138.87;1736950;82;21150;-46
2021/03/21 11:31:48;;;;;;;9.83;7.72;;;;;;;5.69;42.30;100135.56;1729141;82;21151;-49
2021/03/21 11:34:33;;;;;;;10.10;7.85;;;;;;;5.69;41.88;100122.81;1729765;81;21157;-44
2021/03/21 11:37:20;;;;;;;9.30;7.85;;;;;;;5.70;41.99;100116.61;1735669;81;21567;-48
2021/03/21 11:39:56;;;;;;;10.82;8.68;;;;;;;5.75;42.79;100121.23;1722126;81;21150;-48
2021/03/21 11:42:28;;;;;;;9.33;7.47;;;;;;;5.85;42.24;100111.96;1728812;82;21164;-42
2021/03/21 11:45:26;;;;;;;10.88;7.78;;;;;;;5.89;42.26;100113.52;1733389;81;21140;-41
2021/03/21 11:47:59;;;;;;;10.00;7.78;;;;;;;5.88;41.95;100110.96;1731102;81;21608;-48
2021/03/21 11:50:32;;;;;;;10.03;7.85;;;;;;;5.79;41.64;100099.84;1673628;83;21135;-48
2021/03/21 11:53:00;;;;;;;10.13;7.97;;;;;;;5.78;42.21;100106.53;1658502;84;21191;-47
2021/03/21 11:55:38;;;;;;;10.30;7.78;;;;;;;5.84;42.60;100096.98;1676438;85;21593;-48
2021/03/21 11:58:19;;;;;;;10.35;8.20;;;;;;;5.91;41.92;100089.64;1671932;85;21178;-47
2021/03/21 12:01:00;;;;;;;17.32;12.05;;;;;;;5.93;41.80;100085.14;1692372;83;22014;-47
2021/03/21 12:03:29;;;;;;;11.15;8.55;;;;;;;5.96;42.07;100076.62;1729939;81;21154;-48
2021/03/21 12:06:06;;;;;;;11.90;7.85;;;;;;;6.00;42.28;100071.59;1737524;81;21310;-45
2021/03/21 12:08:37;;;;;;;10.50;8.08;;;;;;;6.05;42.05;100070.91;1715473;81;21125;-48
2021/03/21 12:11:19;;;;;;;11.33;7.37;;;;;;;6.12;41.90;100070.62;1727058;82;21145;-47
2021/03/21 12:13:48;;;;;;;9.83;7.40;;;;;;;6.17;42.08;100057.55;1718235;81;21138;-48
2021/03/21 12:16:40;;;;;;;9.58;7.85;;;;;;;6.24;41.80;100060.30;1703203;83;21150;-48
2021/03/21 12:19:31;;;;;;;7.55;6.60;;;;;;;6.29;41.64;100066.24;1733480;81;21108;-50
2021/03/21 12:22:09;;;;;;;9.08;7.35;;;;;;;6.31;40.71;100058.23;1740145;81;22013;-46
2021/03/21 12:24:37;;;;;;;9.85;7.75;;;;;;;6.31;40.88;100044.14;1734054;81;21945;-48
2021/03/21 12:27:37;;;;;;;12.37;7.40;;;;;;;6.33;40.91;100047.58;1732107;81;21917;-47
2021/03/21 12:30:19;;;;;;;10.82;6.95;;;;;;;6.34;40.70;100040.02;1736130;82;21118;-45
2021/03/21 12:32:49;;;;;;;9.10;7.20;;;;;;;6.34;40.69;100039.55;1682343;84;21164;-48
2021/03/21 12:35:27;;;;;;;;;;;;;;;6.34;40.79;100041.34;1720154;81;21169;-46